Time;durP1;ratioP1;P1;durP2;ratioP2;P2;SDS_P1;SDS_P2;PMS_P1;PMS_P2;Temp;Humidity;BMP_temperature;BMP_pressure;BME280_temperature;BME280_humidity;BME280_pressure;Samples;Min_cycle;Max_cycle;Signal;HPM_P1;HPM_P2
2022/08/28 00:02:23;;;;;;;5.72;1.77;;;;;;;20.83;50.38;100481.16;5074515;28;20048;-62
2022/08/28 00:04:50;;;;;;;4.80;1.70;;;;;;;20.80;50.18;100479.09;5081015;28;20056;-62
2022/08/28 00:07:18;;;;;;;4.45;1.80;;;;;;;20.82;49.96;100482.38;5102704;28;20063;-62
2022/08/28 00:09:45;;;;;;;4.07;1.75;;;;;;;20.78;49.92;100481.50;5095410;28;20051;-61
2022/08/28 00:12:13;;;;;;;6.05;1.95;;;;;;;20.77;49.96;100489.19;5094620;28;20059;-61
2022/08/28 00:14:40;;;;;;;5.20;2.05;;;;;;;20.77;50.08;100492.00;5095409;28;20051;-61
2022/08/28 00:17:08;;;;;;;6.35;2.20;;;;;;;20.76;50.07;100487.53;5094589;28;20051;-60
2022/08/28 00:19:36;;;;;;;5.05;1.85;;;;;;;20.75;50.28;100485.13;5100870;28;20498;-62
2022/08/28 00:22:04;;;;;;;8.23;2.33;;;;;;;20.74;50.16;100486.28;5110430;28;20044;-62
2022/08/28 00:24:31;;;;;;;6.40;2.10;;;;;;;20.72;50.23;100485.88;5094955;28;20054;-62
2022/08/28 00:29:43;;;;;;;4.55;2.03;;;;;;;20.70;49.86;100482.59;5096004;28;20071;-61
2022/08/28 00:32:10;;;;;;;5.40;2.42;;;;;;;20.67;49.54;100487.81;5103990;28;20408;-62
2022/08/28 00:34:39;;;;;;;7.22;3.03;;;;;;;20.66;49.44;100486.22;5094988;28;20070;-61
2022/08/28 00:37:07;;;;;;;7.95;2.83;;;;;;;20.56;49.28;100484.00;5094715;28;20063;-61
2022/08/28 00:39:34;;;;;;;7.78;2.90;;;;;;;20.56;49.11;100484.00;5094548;28;20052;-61
2022/08/28 00:42:02;;;;;;;6.05;2.67;;;;;;;20.53;48.94;100487.59;5094717;28;20048;-61
2022/08/28 00:44:30;;;;;;;8.48;3.53;;;;;;;20.50;48.75;100488.38;5094146;28;20048;-63
2022/08/28 00:46:59;;;;;;;7.43;3.30;;;;;;;20.47;48.87;100483.44;5112360;28;20055;-62
2022/08/28 00:49:30;;;;;;;7.80;2.90;;;;;;;20.48;48.91;100485.09;5098760;28;20059;-62
2022/08/28 00:52:07;;;;;;;8.18;3.00;;;;;;;20.45;48.83;100488.69;5094282;28;20059;-62
2022/08/28 00:54:38;;;;;;;7.43;3.20;;;;;;;20.44;48.79;100493.53;5093944;28;20043;-61
2022/08/28 00:57:08;;;;;;;7.22;3.30;;;;;;;20.39;48.89;100490.19;5094346;28;20428;-61
2022/08/28 00:59:36;;;;;;;7.28;3.13;;;;;;;20.41;48.95;100494.31;5093732;28;20052;-62
2022/08/28 01:02:05;;;;;;;6.68;3.40;;;;;;;20.42;48.96;100495.13;5112057;28;20056;-62
2022/08/28 01:04:34;;;;;;;7.43;3.60;;;;;;;20.37;49.00;100492.59;5100872;28;20070;-63
2022/08/28 01:07:07;;;;;;;9.40;3.45;;;;;;;20.35;49.15;100495.00;5093780;28;20515;-62
2022/08/28 01:09:38;;;;;;;10.15;3.72;;;;;;;20.35;49.13;100489.31;5093862;28;20051;-62
2022/08/28 01:12:09;;;;;;;7.78;3.67;;;;;;;20.24;49.40;100484.34;5094143;28;20048;-61
2022/08/28 01:14:44;;;;;;;6.47;2.88;;;;;;;20.21;49.58;100489.94;5100634;28;20456;-62
2022/08/28 01:17:13;;;;;;;6.50;3.60;;;;;;;20.20;49.91;100500.44;5112250;28;20062;-62
2022/08/28 01:19:45;;;;;;;11.30;4.07;;;;;;;20.17;49.87;100492.72;5104034;28;20048;-62
2022/08/28 01:22:22;;;;;;;8.07;3.50;;;;;;;20.13;50.02;100494.66;5093847;28;20051;-62
2022/08/28 01:24:54;;;;;;;9.18;3.78;;;;;;;20.08;50.10;100495.81;5093700;28;20052;-61
2022/08/28 01:27:22;;;;;;;7.97;3.50;;;;;;;20.12;50.25;100506.38;5093865;28;20534;-62
2022/08/28 01:29:50;;;;;;;9.57;3.25;;;;;;;20.11;50.23;100494.22;5093729;28;20059;-62
2022/08/28 01:32:30;;;;;;;6.95;3.30;;;;;;;20.11;50.42;100504.72;5104635;28;20411;-62
2022/08/28 01:34:58;;;;;;;9.18;3.13;;;;;;;20.06;50.39;100505.88;5104872;28;20406;-62
2022/08/28 01:37:26;;;;;;;7.53;3.72;;;;;;;20.01;50.69;100503.34;5093407;28;20063;-62
2022/08/28 01:39:54;;;;;;;7.55;3.25;;;;;;;20.02;50.77;100510.66;5093216;28;20059;-62
2022/08/28 01:42:22;;;;;;;8.70;3.42;;;;;;;20.01;50.83;100511.81;5093563;28;20056;-62
2022/08/28 01:44:51;;;;;;;7.63;3.20;;;;;;;20.00;51.23;100510.19;5092938;28;20044;-62
2022/08/28 01:47:18;;;;;;;6.72;3.42;;;;;;;19.95;51.24;100510.50;5107980;28;20052;-62
2022/08/28 01:49:46;;;;;;;12.25;3.80;;;;;;;19.90;51.20;100514.47;5110182;28;20055;-61
2022/08/28 01:52:13;;;;;;;7.00;3.08;;;;;;;19.84;51.25;100515.97;5093315;28;20393;-62
2022/08/28 01:54:41;;;;;;;10.52;3.35;;;;;;;19.74;51.87;100511.78;5106052;28;20507;-62
2022/08/28 01:57:09;;;;;;;7.72;3.55;;;;;;;19.66;51.84;100509.97;5093388;28;20119;-62
2022/08/28 01:59:37;;;;;;;7.03;3.55;;;;;;;19.57;52.16;100509.38;5092453;28;20059;-62
2022/08/28 02:02:05;;;;;;;6.88;3.30;;;;;;;19.51;52.27;100525.00;5092781;28;20052;-61
2022/08/28 02:04:32;;;;;;;7.07;3.38;;;;;;;19.45;52.40;100528.16;5092466;28;20060;-61
2022/08/28 02:07:00;;;;;;;9.10;3.80;;;;;;;19.42;52.71;100523.25;5092562;28;20428;-62
2022/08/28 02:09:27;;;;;;;9.95;3.83;;;;;;;19.39;53.38;100521.16;5092783;28;20151;-61
2022/08/28 02:11:56;;;;;;;6.50;3.22;;;;;;;19.39;52.98;100524.00;5092848;28;20048;-62
2022/08/28 02:14:25;;;;;;;10.07;4.35;;;;;;;19.38;53.19;100522.38;5090786;28;20048;-62
2022/08/28 02:16:52;;;;;;;8.93;3.80;;;;;;;19.38;52.99;100527.19;5086684;28;20060;-62
2022/08/28 02:19:21;;;;;;;6.25;3.33;;;;;;;19.38;53.14;100524.38;5092709;28;20071;-62
2022/08/28 02:21:48;;;;;;;7.30;3.53;;;;;;;19.34;53.12;100531.94;5092393;28;20048;-62
2022/08/28 02:24:16;;;;;;;9.43;3.38;;;;;;;19.21;53.67;100536.94;5092718;28;20055;-62
2022/08/28 02:26:44;;;;;;;10.70;3.85;;;;;;;19.22;53.48;100536.56;5092915;28;20056;-62
2022/08/28 02:29:12;;;;;;;7.25;3.33;;;;;;;19.17;53.64;100528.41;5092384;28;20051;-61
2022/08/28 02:31:40;;;;;;;7.15;3.50;;;;;;;19.12;54.02;100536.34;5104410;28;20044;-62
2022/08/28 02:34:08;;;;;;;6.73;3.33;;;;;;;19.04;54.41;100535.38;5092583;28;20051;-62
2022/08/28 02:36:35;;;;;;;7.53;3.33;;;;;;;18.94;54.66;100535.97;5092202;28;20481;-61
2022/08/28 02:39:03;;;;;;;8.50;3.45;;;;;;;18.86;55.09;100533.00;5107152;28;20051;-62
2022/08/28 02:41:30;;;;;;;7.80;3.55;;;;;;;18.86;54.77;100540.66;5101100;28;20048;-62
2022/08/28 02:43:57;;;;;;;6.93;3.40;;;;;;;18.81;55.09;100540.91;5092932;28;20382;-67
2022/08/28 02:46:25;;;;;;;8.70;3.38;;;;;;;18.77;55.15;100546.47;5103193;28;20420;-66
2022/08/28 02:48:55;;;;;;;5.50;3.30;;;;;;;18.75;55.49;100542.34;5092506;28;20378;-67
2022/08/28 02:51:22;;;;;;;11.05;3.50;;;;;;;18.75;55.46;100550.81;5092051;28;20052;-67
2022/08/28 02:53:51;;;;;;;6.03;3.53;;;;;;;18.74;55.66;100552.03;5092478;28;20047;-67
2022/08/28 02:56:18;;;;;;;9.00;3.67;;;;;;;18.66;55.65;100549.03;5092096;28;20050;-67
2022/08/28 02:58:46;;;;;;;9.02;3.72;;;;;;;18.65;55.75;100553.03;5092240;28;20501;-67
2022/08/28 03:01:14;;;;;;;7.85;3.42;;;;;;;18.68;55.67;100557.13;5102776;28;20066;-67
2022/08/28 03:03:42;;;;;;;8.63;3.67;;;;;;;18.69;55.65;100557.94;5095535;28;20481;-67
2022/08/28 03:06:12;;;;;;;9.75;3.53;;;;;;;18.69;55.75;100553.13;5091965;28;20052;-67
2022/08/28 03:08:40;;;;;;;8.75;3.55;;;;;;;18.67;55.62;100559.13;5091534;28;20412;-67
2022/08/28 03:11:08;;;;;;;7.93;4.07;;;;;;;18.65;55.56;100560.69;5092090;28;20048;-67
2022/08/28 03:13:35;;;;;;;8.40;3.58;;;;;;;18.65;55.85;100557.88;5090700;28;20372;-67
2022/08/28 03:16:03;;;;;;;8.38;4.05;;;;;;;18.62;56.07;100561.41;5112121;28;20048;-67
2022/08/28 03:18:31;;;;;;;7.25;3.30;;;;;;;18.60;56.08;100561.78;5100344;28;20468;-67
2022/08/28 03:21:00;;;;;;;7.05;3.80;;;;;;;18.61;56.03;100557.78;5092007;28;20056;-67
2022/08/28 03:23:28;;;;;;;8.27;3.90;;;;;;;18.56;56.08;100545.97;5091411;28;20056;-67
2022/08/28 03:25:58;;;;;;;8.30;3.90;;;;;;;18.54;56.41;100553.97;5091840;28;20044;-67
2022/08/28 03:28:27;;;;;;;10.98;4.53;;;;;;;18.50;56.41;100556.72;5092757;28;20047;-67
2022/08/28 03:30:55;;;;;;;8.90;4.28;;;;;;;18.51;56.56;100554.72;5116019;28;20051;-67
2022/08/28 03:33:22;;;;;;;8.55;4.00;;;;;;;18.49;56.57;100549.44;5109964;28;20051;-62
2022/08/28 03:35:50;;;;;;;8.05;4.22;;;;;;;18.47;56.37;100551.81;5095572;28;20071;-68
2022/08/28 03:38:18;;;;;;;6.70;3.38;;;;;;;18.46;56.29;100551.00;5095474;28;20047;-67
2022/08/28 03:40:48;;;;;;;7.63;3.85;;;;;;;18.43;56.58;100556.53;5095331;28;20059;-67
2022/08/28 03:43:17;;;;;;;;;;;;;;;18.36;56.70;100548.72;5097268;28;20066;-67
2022/08/28 03:45:52;;;;;;;9.05;4.20;;;;;;;18.33;57.00;100563.56;5112050;28;19927;-67
2022/08/28 03:48:19;;;;;;;10.02;3.63;;;;;;;18.35;56.73;100561.19;5114295;28;20484;-67
2022/08/28 03:50:47;;;;;;;10.55;3.83;;;;;;;18.32;56.75;100566.75;5095054;28;20052;-67
2022/08/28 03:53:14;;;;;;;9.65;3.75;;;;;;;18.32;57.08;100561.09;5095036;28;20067;-67
2022/08/28 03:55:43;;;;;;;10.75;4.20;;;;;;;18.35;56.85;100554.72;5095105;28;20059;-67
2022/08/28 03:58:12;;;;;;;8.05;4.05;;;;;;;18.34;57.00;100567.19;5094473;28;20067;-67
2022/08/28 04:00:40;;;;;;;10.45;4.50;;;;;;;18.30;57.78;100561.47;5110426;28;20411;-67
2022/08/28 04:03:11;;;;;;;10.70;3.85;;;;;;;18.29;57.56;100567.47;5115704;28;20047;-67
2022/08/28 04:05:38;;;;;;;10.05;3.70;;;;;;;18.23;57.15;100570.56;5098625;28;20055;-67
2022/08/28 04:08:06;;;;;;;9.60;4.13;;;;;;;18.20;57.44;100565.63;5095348;28;20377;-67
2022/08/28 04:10:35;;;;;;;9.48;3.80;;;;;;;18.14;57.29;100566.28;5094811;28;20055;-67
2022/08/28 04:13:03;;;;;;;7.50;3.53;;;;;;;18.09;57.59;100566.56;5092838;28;20055;-67
2022/08/28 04:15:32;;;;;;;10.90;4.00;;;;;;;18.04;57.90;100570.47;5101343;28;20400;-67
2022/08/28 04:17:59;;;;;;;8.50;4.17;;;;;;;18.00;57.90;100567.56;5094837;28;20052;-67
2022/08/28 04:20:27;;;;;;;7.25;4.00;;;;;;;17.96;58.10;100569.47;5094647;28;20059;-67
2022/08/28 04:22:55;;;;;;;12.40;4.82;;;;;;;17.97;58.93;100576.72;5094866;28;20056;-68
2022/08/28 04:25:23;;;;;;;9.65;3.70;;;;;;;17.93;58.61;100573.03;5094472;28;20409;-68
2022/08/28 04:27:51;;;;;;;7.30;3.92;;;;;;;17.87;58.79;100570.81;5092074;28;20060;-67
2022/08/28 04:30:18;;;;;;;11.50;4.22;;;;;;;17.82;59.05;100572.72;5108240;28;20044;-68
2022/08/28 04:32:47;;;;;;;8.77;4.13;;;;;;;17.79;58.90;100579.06;5094310;28;20055;-68
2022/08/28 04:35:15;;;;;;;6.15;3.38;;;;;;;17.75;58.81;100566.88;5094365;28;20052;-68
2022/08/28 04:37:43;;;;;;;9.25;4.22;;;;;;;17.72;59.08;100564.75;5093710;28;20067;-68
2022/08/28 04:40:14;;;;;;;8.93;3.95;;;;;;;17.68;59.28;100572.31;5094152;28;20051;-68
2022/08/28 04:42:43;;;;;;;7.40;3.60;;;;;;;17.63;59.74;100581.00;5090875;28;20043;-68
2022/08/28 04:45:11;;;;;;;11.05;4.30;;;;;;;17.63;59.70;100572.56;5113488;28;20054;-68
2022/08/28 04:47:39;;;;;;;5.72;3.83;;;;;;;17.66;59.60;100574.69;5094387;28;20079;-68
2022/08/28 04:50:11;;;;;;;8.93;3.80;;;;;;;17.69;59.35;100571.13;5094683;28;20400;-68
2022/08/28 04:52:38;;;;;;;8.45;3.83;;;;;;;17.67;59.36;100565.03;5094138;28;20412;-68
2022/08/28 04:55:07;;;;;;;11.00;4.22;;;;;;;17.74;59.27;100570.03;5094266;28;20067;-69
2022/08/28 04:57:34;;;;;;;8.27;3.80;;;;;;;17.79;59.57;100567.78;5101223;28;20549;-67
2022/08/28 05:00:02;;;;;;;7.75;4.20;;;;;;;17.85;59.28;100571.19;5114560;28;20058;-68
2022/08/28 05:02:30;;;;;;;9.00;3.47;;;;;;;17.90;59.43;100578.56;5097600;28;20047;-67
2022/08/28 05:04:58;;;;;;;8.73;3.55;;;;;;;17.95;59.10;100578.28;5093925;28;20059;-68
2022/08/28 05:07:26;;;;;;;11.75;4.13;;;;;;;18.04;58.66;100581.75;5093517;28;20492;-68
2022/08/28 05:09:54;;;;;;;9.10;3.80;;;;;;;18.11;58.40;100584.75;5094171;28;20397;-67
2022/08/28 05:12:22;;;;;;;8.35;3.47;;;;;;;18.16;58.28;100580.84;5095700;28;20482;-68
2022/08/28 05:14:49;;;;;;;7.28;3.63;;;;;;;18.19;58.20;100575.28;5094180;28;20055;-68
2022/08/28 05:17:17;;;;;;;7.30;3.78;;;;;;;18.22;58.23;100582.19;5093788;28;20048;-68
2022/08/28 05:19:44;;;;;;;9.15;4.32;;;;;;;18.26;58.04;100589.56;5093857;28;20063;-68
2022/08/28 05:22:11;;;;;;;6.97;3.42;;;;;;;18.34;57.67;100590.56;5093732;28;20055;-67
2022/08/28 05:24:40;;;;;;;10.63;3.78;;;;;;;18.41;57.85;100592.75;5093868;28;20065;-67
2022/08/28 05:27:08;;;;;;;8.43;3.85;;;;;;;18.50;57.38;100601.84;5101348;28;20044;-68
2022/08/28 05:29:35;;;;;;;11.75;3.95;;;;;;;18.49;57.12;100603.03;5093565;28;20048;-68
2022/08/28 05:32:04;;;;;;;8.05;3.72;;;;;;;18.45;57.51;100604.94;5093303;28;20492;-68
2022/08/28 05:34:31;;;;;;;8.85;3.78;;;;;;;18.51;57.14;100602.66;5092833;28;20052;-67
2022/08/28 05:36:58;;;;;;;8.60;3.65;;;;;;;18.57;57.11;100610.47;5093216;28;20044;-67
2022/08/28 05:39:26;;;;;;;9.77;3.67;;;;;;;18.57;57.09;100612.50;5093109;28;20381;-67
2022/08/28 05:41:54;;;;;;;8.13;3.67;;;;;;;18.62;57.13;100613.00;5099190;28;20507;-68
2022/08/28 05:44:22;;;;;;;8.68;3.45;;;;;;;18.69;56.93;100603.09;5093364;28;20048;-68
2022/08/28 05:46:49;;;;;;;8.85;3.65;;;;;;;18.76;56.66;100611.75;5092969;28;20051;-68
2022/08/28 05:49:18;;;;;;;7.35;3.28;;;;;;;18.82;56.45;100611.13;5091810;28;20055;-68
2022/08/28 05:51:46;;;;;;;7.03;3.20;;;;;;;18.88;56.12;100617.31;5092576;28;20066;-68
2022/08/28 05:54:14;;;;;;;9.07;3.60;;;;;;;18.92;56.07;100621.03;5092123;28;20055;-67
2022/08/28 05:56:44;;;;;;;8.95;3.63;;;;;;;18.96;56.07;100621.94;5111304;28;20468;-68
2022/08/28 05:59:14;;;;;;;9.48;3.35;;;;;;;19.01;55.97;100632.09;5099057;28;20052;-67
2022/08/28 06:01:44;;;;;;;7.53;4.13;;;;;;;19.06;55.85;100626.16;5092637;28;20052;-68
2022/08/28 06:04:14;;;;;;;8.98;3.50;;;;;;;19.09;55.74;100627.44;5093149;28;20055;-68
2022/08/28 06:06:42;;;;;;;8.38;3.40;;;;;;;19.07;55.71;100636.28;5092083;28;20505;-68
2022/08/28 06:09:13;;;;;;;8.27;3.47;;;;;;;19.16;55.41;100633.25;5098858;28;20056;-68
2022/08/28 06:11:41;;;;;;;8.63;3.15;;;;;;;19.19;55.35;100632.50;5112447;28;20059;-68
2022/08/28 06:14:11;;;;;;;7.97;3.50;;;;;;;19.24;55.08;100635.84;5103363;28;20390;-68
2022/08/28 06:16:40;;;;;;;;;;;;;;;19.26;55.06;100639.13;5092577;28;20511;-67
2022/08/28 06:19:08;;;;;;;;;;;;;;;19.29;54.97;100637.56;5092724;28;19949;-68
2022/08/28 06:21:35;;;;;;;7.70;2.90;;;;;;;19.41;54.62;100639.44;5092504;28;20296;-68
2022/08/28 06:24:03;;;;;;;8.52;2.83;;;;;;;19.50;54.61;100647.69;5092712;28;20055;-68
2022/08/28 06:26:31;;;;;;;6.10;3.25;;;;;;;19.56;54.31;100641.38;5092665;28;20047;-67
2022/08/28 06:29:00;;;;;;;8.52;3.08;;;;;;;19.66;54.22;100639.97;5091953;28;20052;-67
2022/08/28 06:31:28;;;;;;;7.28;2.67;;;;;;;19.79;53.56;100649.16;5092382;28;20052;-67
2022/08/28 06:33:59;;;;;;;9.75;3.38;;;;;;;19.95;53.74;100651.88;5092187;28;20507;-68
2022/08/28 06:36:29;;;;;;;8.60;2.85;;;;;;;20.03;53.08;100651.66;5096326;28;20081;-68
2022/08/28 06:38:58;;;;;;;7.70;3.30;;;;;;;20.19;52.20;100651.53;5111769;28;20062;-67
2022/08/28 06:41:28;;;;;;;9.32;3.25;;;;;;;20.33;52.07;100656.63;5092240;28;20059;-67
2022/08/28 06:43:56;;;;;;;8.73;3.00;;;;;;;20.44;51.61;100657.63;5092309;28;20065;-68
2022/08/28 06:46:23;;;;;;;8.57;3.30;;;;;;;20.55;51.21;100657.00;5092252;28;20409;-67
2022/08/28 06:48:51;;;;;;;7.47;2.92;;;;;;;20.69;50.99;100651.63;5092009;28;20056;-68
2022/08/28 06:51:20;;;;;;;6.57;2.70;;;;;;;20.89;50.73;100652.34;5103326;28;20055;-67
2022/08/28 06:53:47;;;;;;;5.32;2.78;;;;;;;20.99;50.32;100650.88;5112526;28;20059;-68
2022/08/28 06:56:18;;;;;;;6.88;2.80;;;;;;;21.11;49.82;100656.31;5096392;28;20048;-67
2022/08/28 06:58:48;;;;;;;7.63;3.00;;;;;;;21.10;49.58;100663.16;5092273;28;20055;-68
2022/08/28 07:01:16;;;;;;;;;;;;;;;21.14;49.86;100658.38;5092419;28;20056;-68
2022/08/28 07:03:45;;;;;;;7.10;2.93;;;;;;;21.22;49.92;100650.81;5091759;28;19924;-67
2022/08/28 07:06:14;;;;;;;8.00;3.07;;;;;;;21.25;49.42;100650.88;5095841;28;20043;-68
2022/08/28 07:08:44;;;;;;;7.38;2.83;;;;;;;21.24;49.35;100649.22;5093756;28;20486;-49
2022/08/28 07:11:13;;;;;;;5.50;2.78;;;;;;;21.12;51.50;100657.13;5092161;28;20055;-48
2022/08/28 07:13:41;;;;;;;7.28;3.10;;;;;;;21.17;50.48;100665.31;5091726;28;20404;-51
2022/08/28 07:16:09;;;;;;;8.07;3.10;;;;;;;21.11;50.93;100655.50;5090042;28;20442;-49
2022/08/28 07:18:37;;;;;;;8.85;2.65;;;;;;;20.98;50.29;100664.22;5088502;28;20062;-48
2022/08/28 07:21:04;;;;;;;10.65;3.40;;;;;;;21.03;49.92;100666.72;5088615;28;20428;-50
2022/08/28 07:23:34;;;;;;;8.40;2.90;;;;;;;21.16;50.15;100670.16;5095954;28;20420;-47
2022/08/28 07:26:05;;;;;;;6.45;2.72;;;;;;;21.13;49.79;100670.09;5091704;28;20531;-50
2022/08/28 07:28:33;;;;;;;10.07;3.15;;;;;;;20.86;50.20;100667.25;5090755;28;20051;-47
2022/08/28 07:31:02;;;;;;;8.48;3.10;;;;;;;20.87;50.24;100664.06;5091940;28;20055;-47
2022/08/28 07:33:31;;;;;;;10.13;2.90;;;;;;;20.98;49.76;100669.88;5090954;28;20503;-47
2022/08/28 07:35:59;;;;;;;9.20;3.10;;;;;;;21.14;50.09;100671.72;5084519;28;20048;-48
2022/08/28 07:38:27;;;;;;;5.80;2.90;;;;;;;21.25;49.40;100676.38;5098588;28;20055;-50
2022/08/28 07:40:55;;;;;;;9.25;2.75;;;;;;;21.55;48.66;100663.44;5105447;28;20056;-48
2022/08/28 07:46:11;;;;;;;6.80;2.72;;;;;;;21.58;47.88;100668.31;5095572;28;20067;-47
2022/08/28 07:48:40;;;;;;;7.20;2.80;;;;;;;21.95;47.23;100678.91;5088969;28;20040;-48
2022/08/28 07:51:09;;;;;;;6.75;2.97;;;;;;;22.62;45.63;100675.97;5090593;28;20047;-47
2022/08/28 07:53:36;;;;;;;8.43;2.63;;;;;;;23.47;44.06;100674.97;5089039;28;20661;-50
2022/08/28 07:56:04;;;;;;;8.88;2.95;;;;;;;24.51;42.10;100683.91;5098449;28;20523;-48
2022/08/28 07:58:34;;;;;;;7.63;2.58;;;;;;;24.78;40.54;100674.97;5090910;28;20048;-50
2022/08/28 08:01:01;;;;;;;6.85;2.85;;;;;;;24.82;40.82;100677.81;5090908;28;20047;-47
2022/08/28 08:03:30;;;;;;;7.80;2.30;;;;;;;25.26;39.24;100682.28;5090514;28;20500;-47
2022/08/28 08:06:00;;;;;;;7.13;2.60;;;;;;;25.32;38.76;100683.47;5091379;28;20056;-48
2022/08/28 08:08:28;;;;;;;6.30;2.58;;;;;;;25.04;38.84;100682.28;5091294;28;20047;-49
2022/08/28 08:10:58;;;;;;;5.90;2.13;;;;;;;25.17;38.78;100681.88;5099579;28;20055;-48
2022/08/28 08:13:25;;;;;;;7.85;2.35;;;;;;;25.52;38.49;100681.00;5097016;28;20059;-48
2022/08/28 08:15:54;;;;;;;4.75;2.03;;;;;;;25.80;38.24;100691.47;5091936;28;20048;-50
2022/08/28 08:18:21;;;;;;;8.07;2.53;;;;;;;25.78;37.86;100693.94;5093675;28;20047;-50
2022/08/28 08:20:48;;;;;;;6.80;2.65;;;;;;;25.94;37.87;100698.41;5091557;28;20523;-47
2022/08/28 08:23:16;;;;;;;4.75;2.05;;;;;;;26.77;36.29;100687.28;5102543;28;20515;-48
2022/08/28 08:25:54;;;;;;;5.22;2.50;;;;;;;27.90;34.28;100687.34;5093479;28;20059;-49
2022/08/28 08:28:22;;;;;;;7.53;2.83;;;;;;;28.32;33.60;100696.59;5095294;28;20040;-48
2022/08/28 08:30:49;;;;;;;6.93;2.60;;;;;;;29.83;31.40;100701.81;5083641;28;20063;-49
2022/08/28 08:33:19;;;;;;;6.18;2.53;;;;;;;30.09;30.79;100689.34;5094618;28;20066;-50
2022/08/28 08:35:46;;;;;;;4.03;1.85;;;;;;;30.19;30.46;100686.66;5093589;28;20055;-48
2022/08/28 08:38:13;;;;;;;5.43;1.80;;;;;;;29.48;30.83;100689.75;5086801;28;20040;-50
2022/08/28 08:40:40;;;;;;;8.40;2.65;;;;;;;28.87;30.81;100685.94;5094108;28;20055;-48
2022/08/28 08:43:08;;;;;;;6.45;2.20;;;;;;;28.88;31.33;100681.00;5094520;28;20048;-47
2022/08/28 08:45:38;;;;;;;6.03;2.70;;;;;;;29.40;30.69;100683.38;5098374;28;20054;-48
2022/08/28 08:48:10;;;;;;;6.10;2.20;;;;;;;30.66;28.73;100681.47;5085483;28;20048;-48
2022/08/28 08:50:41;;;;;;;5.78;2.38;;;;;;;30.91;28.54;100677.16;5093407;28;20063;-48
2022/08/28 08:53:21;;;;;;;7.03;1.90;;;;;;;32.33;26.34;100677.22;5091769;28;20101;-49
2022/08/28 08:55:50;;;;;;;5.72;2.30;;;;;;;31.42;27.91;100677.44;5081198;28;20066;-49
2022/08/28 08:58:28;;;;;;;5.43;2.17;;;;;;;31.70;27.24;100680.78;5093088;28;20044;-48
2022/08/28 09:01:01;;;;;;;6.43;1.77;;;;;;;31.47;27.67;100687.63;5089250;28;20489;-49
2022/08/28 09:03:44;;;;;;;7.10;2.33;;;;;;;31.54;27.63;100687.41;5081530;28;20048;-48
2022/08/28 09:06:21;;;;;;;7.30;2.55;;;;;;;30.64;28.29;100683.16;5082770;28;20051;-49
2022/08/28 09:08:53;;;;;;;5.72;2.35;;;;;;;30.05;29.46;100694.38;5082494;28;20052;-47
2022/08/28 09:11:35;;;;;;;8.73;2.45;;;;;;;30.46;29.13;100695.09;5084220;28;20063;-47
2022/08/28 09:14:08;;;;;;;6.20;2.88;;;;;;;30.83;28.49;100684.34;5087225;28;20487;-49
2022/08/28 09:16:38;;;;;;;5.30;2.38;;;;;;;31.80;27.11;100691.19;5086379;28;20040;-49
2022/08/28 09:19:09;;;;;;;6.95;2.80;;;;;;;33.02;25.58;100687.34;5086182;28;20048;-48
2022/08/28 09:21:41;;;;;;;7.28;2.38;;;;;;;34.50;23.76;100697.97;5087005;28;20051;-49
2022/08/28 09:24:15;;;;;;;6.05;2.25;;;;;;;35.18;22.24;100694.34;5090733;28;20051;-47
2022/08/28 09:26:43;;;;;;;5.63;2.40;;;;;;;36.24;22.29;100689.91;5085104;28;20059;-67
2022/08/28 09:29:16;;;;;;;4.85;2.10;;;;;;;38.27;19.76;100691.38;5091618;28;20052;-68
2022/08/28 09:31:44;;;;;;;5.28;2.47;;;;;;;37.56;20.30;100693.97;5083047;28;20060;-65
2022/08/28 09:34:22;;;;;;;6.80;2.45;;;;;;;37.17;20.24;100687.38;5092379;28;20048;-67
2022/08/28 09:36:52;;;;;;;5.15;2.10;;;;;;;37.26;19.78;100686.50;5088215;28;20056;-67
2022/08/28 09:39:23;;;;;;;3.53;1.80;;;;;;;37.40;19.83;100679.94;5087001;28;20064;-67
2022/08/28 09:44:56;;;;;;;4.72;2.00;;;;;;;35.07;21.56;100700.56;5094126;28;20400;-67
2022/08/28 09:47:51;;;;;;;5.72;2.47;;;;;;;36.15;20.71;100701.56;5072755;28;20409;-66
2022/08/28 09:50:30;;;;;;;5.90;2.35;;;;;;;37.88;19.03;100694.34;5074083;28;20477;-66
2022/08/28 09:52:59;;;;;;;;;;;;;;;38.14;18.49;100694.59;5107156;28;20055;-66
2022/08/28 09:55:37;;;;;;;6.47;2.70;;;;;;;39.35;18.01;100685.00;5111340;28;19920;-67
2022/08/28 09:58:05;;;;;;;4.10;2.28;;;;;;;38.84;18.04;100687.25;5092647;28;20048;-68
2022/08/28 10:00:37;;;;;;;5.10;2.90;;;;;;;39.30;17.73;100680.72;5092584;28;20059;-66
2022/08/28 10:03:14;;;;;;;4.93;2.20;;;;;;;39.12;17.17;100695.59;5092394;28;20056;-65
2022/08/28 10:05:51;;;;;;;4.45;2.20;;;;;;;39.50;17.06;100697.44;5091865;28;20052;-65
2022/08/28 10:08:32;;;;;;;4.70;2.38;;;;;;;40.27;16.42;100697.16;5089705;28;20044;-65
2022/08/28 10:11:11;;;;;;;3.88;2.35;;;;;;;40.40;16.63;100685.06;5102525;28;20048;-64
2022/08/28 10:13:48;;;;;;;6.15;2.35;;;;;;;41.80;15.42;100684.22;5093155;28;20390;-64
2022/08/28 10:16:27;;;;;;;5.45;2.50;;;;;;;42.68;15.02;100678.91;5084314;28;20067;-64
2022/08/28 10:19:04;;;;;;;5.22;2.33;;;;;;;44.09;13.74;100678.28;5089019;28;20048;-65
2022/08/28 10:21:39;;;;;;;3.83;2.35;;;;;;;44.62;13.50;100675.13;5090877;28;20052;-65
2022/08/28 10:24:31;;;;;;;4.30;2.35;;;;;;;44.70;12.85;100679.03;5090359;28;20056;-65
2022/08/28 10:27:08;;;;;;;4.82;2.28;;;;;;;43.49;14.13;100675.97;5088312;28;20048;-65
2022/08/28 10:29:51;;;;;;;3.73;2.30;;;;;;;43.21;13.90;100672.38;5090978;28;20044;-65
2022/08/28 10:32:54;;;;;;;4.93;2.65;;;;;;;43.66;13.76;100672.16;5080973;28;20486;-65
2022/08/28 10:35:25;;;;;;;4.90;3.33;;;;;;;44.23;13.36;100666.66;5098444;28;20074;-65
2022/08/28 10:38:02;;;;;;;4.22;2.20;;;;;;;45.58;12.53;100660.03;5100450;28;20408;-64
2022/08/28 10:40:35;;;;;;;5.60;3.20;;;;;;;43.86;13.41;100668.81;5090841;28;20729;-64
2022/08/28 10:43:08;;;;;;;5.03;2.45;;;;;;;45.02;12.02;100660.00;5089534;28;20052;-65
2022/08/28 10:45:37;;;;;;;3.38;2.45;;;;;;;45.50;12.44;100664.19;5086371;28;20044;-65
2022/08/28 10:48:09;;;;;;;5.38;2.17;;;;;;;45.58;12.75;100671.81;5095830;28;20059;-64
2022/08/28 10:50:43;;;;;;;5.85;2.92;;;;;;;45.85;12.22;100666.09;5110682;28;20507;-65
2022/08/28 10:53:15;;;;;;;3.80;2.15;;;;;;;45.90;12.45;100662.25;5102500;28;20047;-65
2022/08/28 10:55:52;;;;;;;3.63;2.30;;;;;;;46.01;12.32;100666.34;5102117;28;20411;-64
2022/08/28 10:58:22;;;;;;;5.68;2.70;;;;;;;46.23;11.68;100671.91;5104391;28;20074;-65
2022/08/28 11:00:50;;;;;;;5.18;2.70;;;;;;;46.11;12.11;100670.50;5092072;28;20063;-64
2022/08/28 11:03:21;;;;;;;3.85;2.25;;;;;;;46.56;11.50;100663.84;5091437;28;20411;-64
2022/08/28 11:05:52;;;;;;;5.35;2.50;;;;;;;45.93;11.98;100667.03;5104224;28;20062;-65
2022/08/28 11:08:26;;;;;;;3.88;2.38;;;;;;;46.58;11.09;100656.00;5104776;28;20052;-64
2022/08/28 11:10:57;;;;;;;3.42;2.10;;;;;;;45.92;12.14;100658.75;5091626;28;20408;-64
2022/08/28 11:13:49;;;;;;;5.22;2.60;;;;;;;46.46;11.59;100653.84;5092053;28;20048;-65
2022/08/28 11:16:23;;;;;;;4.85;2.40;;;;;;;45.93;12.54;100655.25;5091771;28;20059;-65
2022/08/28 11:19:32;;;;;;;5.22;2.42;;;;;;;45.44;12.40;100655.44;5090643;28;20048;-64
2022/08/28 11:22:03;;;;;;;4.28;2.20;;;;;;;45.35;11.98;100656.63;5109544;28;20051;-64
2022/08/28 11:24:43;;;;;;;3.42;2.10;;;;;;;45.55;12.00;100654.47;5098504;28;20047;-64
2022/08/28 11:27:22;;;;;;;5.25;2.20;;;;;;;45.26;12.17;100656.25;5110742;28;20414;-64
2022/08/28 11:30:02;;;;;;;4.68;2.50;;;;;;;45.50;11.61;100662.03;5099366;28;20052;-64
2022/08/28 11:32:55;;;;;;;4.55;2.10;;;;;;;45.60;11.82;100656.53;5091660;28;20060;-64
2022/08/28 11:35:43;;;;;;;3.40;2.20;;;;;;;45.58;12.12;100660.03;5091323;28;20484;-64
2022/08/28 11:38:11;;;;;;;5.32;2.25;;;;;;;45.23;12.07;100651.44;5091067;28;20048;-64
2022/08/28 11:40:54;;;;;;;5.55;3.33;;;;;;;44.61;12.06;100663.94;5101454;28;20044;-64
2022/08/28 11:43:40;;;;;;;3.40;1.92;;;;;;;44.19;12.50;100661.13;5091657;28;20409;-64
2022/08/28 11:46:26;;;;;;;3.30;2.10;;;;;;;44.54;12.28;100659.44;5101001;28;20492;-64
2022/08/28 11:48:55;;;;;;;4.63;2.27;;;;;;;44.56;12.25;100659.69;5114118;28;20099;-64
2022/08/28 11:51:50;;;;;;;3.47;2.00;;;;;;;43.72;12.55;100664.13;5096152;28;20477;-64